createdAt,value
2018-02-11T00:00:51.120Z,82.30
2018-02-11T00:03:20.036Z,82.70
2018-02-11T00:05:48.177Z,82.70
2018-02-11T00:08:17.098Z,82.70
2018-02-11T00:10:46.305Z,82.70
2018-02-11T00:13:14.461Z,82.60
2018-02-11T00:15:42.592Z,82.70
2018-02-11T00:18:10.741Z,82.80
2018-02-11T00:20:38.892Z,82.80
2018-02-11T00:23:18.829Z,82.30
2018-02-11T00:25:46.969Z,82.00
2018-02-11T00:28:15.121Z,82.10
2018-02-11T00:30:51.663Z,82.30
2018-02-11T00:33:19.808Z,81.90
2018-02-11T00:35:47.945Z,81.30
2018-02-11T00:38:16.097Z,81.20
2018-02-11T00:40:51.498Z,81.20
2018-02-11T00:43:19.640Z,81.10
2018-02-11T00:45:47.774Z,81.20
2018-02-11T00:48:16.694Z,81.90
2018-02-11T00:50:44.827Z,81.90
2018-02-11T00:53:12.976Z,81.90
2018-02-11T00:55:41.877Z,82.00
2018-02-11T00:58:10.035Z,81.90
2018-02-11T01:00:42.430Z,81.60
2018-02-11T01:03:10.576Z,81.50
2018-02-11T01:05:39.473Z,81.70
2018-02-11T01:08:08.391Z,81.60
2018-02-11T01:10:37.486Z,81.60
2018-02-11T01:13:05.636Z,81.20
2018-02-11T01:15:33.797Z,81.30
2018-02-11T01:18:02.757Z,81.20
2018-02-11T01:20:30.889Z,81.00
2018-02-11T01:22:59.036Z,80.80
2018-02-11T01:25:27.928Z,80.50
2018-02-11T01:27:56.851Z,80.40
2018-02-11T01:30:32.295Z,80.50
2018-02-11T01:33:00.446Z,80.50
2018-02-11T01:35:28.584Z,80.60
2018-02-11T01:37:56.732Z,80.60
2018-02-11T01:40:32.066Z,80.60
2018-02-11T01:43:00.228Z,81.60
2018-02-11T01:45:28.365Z,81.00
2018-02-11T01:47:56.516Z,81.10
2018-02-11T01:50:24.646Z,81.20
2018-02-11T01:52:52.784Z,81.10
2018-02-11T01:55:21.708Z,81.00
2018-02-11T01:57:49.833Z,81.00
2018-02-11T02:00:17.981Z,81.20
2018-02-11T02:02:46.124Z,81.40
2018-02-11T02:05:14.276Z,81.10
2018-02-11T02:07:43.209Z,80.70
2018-02-11T02:10:15.069Z,80.80
2018-02-11T02:12:43.204Z,80.50
2018-02-11T02:15:11.368Z,80.10
2018-02-11T02:17:39.500Z,80.50
2018-02-11T02:20:09.604Z,80.70
2018-02-11T02:22:37.734Z,80.50
2018-02-11T02:25:06.645Z,80.10
2018-02-11T02:27:34.772Z,80.10
2018-02-11T02:30:04.866Z,80.00
2018-02-11T02:32:32.996Z,80.10
2018-02-11T02:35:01.153Z,80.40
2018-02-11T02:37:30.048Z,80.30
2018-02-11T02:40:09.025Z,80.10
2018-02-11T02:42:37.148Z,80.10
2018-02-11T02:45:06.061Z,80.00
2018-02-11T02:47:34.189Z,80.00
2018-02-11T02:50:07.037Z,79.60
2018-02-11T02:52:35.171Z,79.60
2018-02-11T02:55:03.360Z,80.00
2018-02-11T02:57:31.494Z,79.40
2018-02-11T03:00:03.217Z,79.70
2018-02-11T03:02:31.353Z,79.20
2018-02-11T03:04:59.543Z,79.30
2018-02-11T03:07:27.681Z,78.90
2018-02-11T03:09:57.525Z,78.80
2018-02-11T03:12:25.677Z,78.80
2018-02-11T03:14:54.608Z,78.90
2018-02-11T03:17:22.761Z,78.80
2018-02-11T03:19:54.217Z,79.00
2018-02-11T03:22:22.368Z,78.80
2018-02-11T03:24:51.265Z,79.00
2018-02-11T03:27:19.416Z,79.10
2018-02-11T03:29:52.133Z,78.80
2018-02-11T03:32:20.285Z,78.70
2018-02-11T03:34:49.186Z,78.80
2018-02-11T03:37:17.332Z,78.80
2018-02-11T03:39:45.460Z,78.40
2018-02-11T03:42:13.614Z,78.70
2018-02-11T03:44:41.745Z,78.50
2018-02-11T03:47:09.894Z,78.40
2018-02-11T03:49:41.413Z,78.10
2018-02-11T03:52:09.605Z,78.30
2018-02-11T03:54:37.737Z,78.40
2018-02-11T03:57:06.658Z,79.30
2018-02-11T03:59:34.792Z,78.50
2018-02-11T04:02:03.704Z,78.10
2018-02-11T04:04:31.835Z,78.00
2018-02-11T04:06:59.984Z,77.90
2018-02-11T04:09:32.125Z,77.80
2018-02-11T04:12:00.309Z,77.60
2018-02-11T04:14:29.204Z,77.80
2018-02-11T04:16:57.326Z,77.90
2018-02-11T04:19:26.240Z,78.20
2018-02-11T04:21:54.368Z,78.10
2018-02-11T04:24:22.513Z,78.40
2018-02-11T04:26:50.640Z,78.50
2018-02-11T04:29:18.828Z,78.70
2018-02-11T04:31:46.952Z,78.60
2018-02-11T04:34:15.089Z,78.40
2018-02-11T04:36:43.212Z,78.70
2018-02-11T04:39:11.361Z,79.00
2018-02-11T04:41:39.488Z,79.20
2018-02-11T04:44:07.632Z,79.40
2018-02-11T04:46:35.760Z,79.80
2018-02-11T04:49:04.864Z,80.00
2018-02-11T04:51:32.998Z,79.80
2018-02-11T04:54:01.915Z,79.90
2018-02-11T04:56:30.045Z,79.90
2018-02-11T04:59:00.949Z,80.20
2018-02-11T05:01:29.080Z,80.10
2018-02-11T05:03:57.237Z,80.20
2018-02-11T05:06:26.136Z,80.70
2018-02-11T05:08:55.432Z,80.70
2018-02-11T05:11:24.330Z,81.00
2018-02-11T05:13:52.485Z,81.00
2018-02-11T05:16:21.393Z,81.30
2018-02-11T05:18:49.553Z,81.30
2018-02-11T05:21:17.684Z,81.10
2018-02-11T05:23:45.836Z,81.10
2018-02-11T05:26:13.977Z,81.10
2018-02-11T05:28:55.844Z,80.90
2018-02-11T05:31:23.976Z,80.70
2018-02-11T05:33:52.122Z,80.70
2018-02-11T05:36:21.017Z,80.60
2018-02-11T05:38:49.161Z,80.60
2018-02-11T05:41:17.290Z,80.50
2018-02-11T05:43:45.445Z,80.60
2018-02-11T05:46:13.573Z,80.60
2018-02-11T05:48:41.720Z,80.50
2018-02-11T05:51:09.844Z,80.60
2018-02-11T05:53:38.759Z,80.40
2018-02-11T05:56:06.885Z,80.40
2018-02-11T05:58:51.885Z,80.30
2018-02-11T06:01:20.021Z,80.20
2018-02-11T06:03:48.164Z,80.10
2018-02-11T06:06:16.293Z,79.80
2018-02-11T06:08:50.656Z,79.10
2018-02-11T06:11:18.788Z,79.10
2018-02-11T06:13:47.699Z,78.50
2018-02-11T06:16:15.832Z,78.40
2018-02-11T06:18:48.265Z,78.40
2018-02-11T06:21:16.392Z,78.40
2018-02-11T06:23:45.288Z,78.50
2018-02-11T06:26:13.444Z,78.50
2018-02-11T06:28:55.464Z,78.20
2018-02-11T06:31:23.612Z,78.10
2018-02-11T06:33:51.820Z,78.10
2018-02-11T06:36:19.968Z,78.70
2018-02-11T06:38:48.860Z,77.30
2018-02-11T06:41:17.788Z,76.90
2018-02-11T06:43:45.916Z,76.90
2018-02-11T06:46:14.862Z,76.60
2018-02-11T06:48:50.213Z,76.40
2018-02-11T06:51:18.405Z,76.50
2018-02-11T06:53:46.539Z,76.70
2018-02-11T06:56:14.688Z,76.60
2018-02-11T06:58:52.719Z,76.60
2018-02-11T07:01:20.869Z,76.90
2018-02-11T07:03:48.996Z,76.80
2018-02-11T07:06:17.137Z,76.40
2018-02-11T07:08:52.364Z,76.20
2018-02-11T07:11:20.514Z,76.10
2018-02-11T07:13:48.677Z,75.80
2018-02-11T07:16:17.597Z,75.40
2018-02-11T07:18:49.173Z,75.40
2018-02-11T07:21:17.332Z,75.20
2018-02-11T07:23:45.464Z,74.50
2018-02-11T07:26:13.677Z,74.50
2018-02-11T07:28:42.869Z,74.90
2018-02-11T07:31:11.064Z,74.70
2018-02-11T07:33:39.196Z,75.10
2018-02-11T07:36:08.118Z,74.60
2018-02-11T07:38:40.075Z,74.50
2018-02-11T07:41:08.244Z,74.70
2018-02-11T07:43:36.372Z,74.40
2018-02-11T07:46:04.525Z,74.30
2018-02-11T07:48:50.246Z,73.80
2018-02-11T07:51:18.400Z,73.50
2018-02-11T07:53:46.536Z,73.80
2018-02-11T07:56:14.685Z,73.60
2018-02-11T07:58:44.837Z,72.50
2018-02-11T08:01:12.984Z,73.00
2018-02-11T08:03:41.162Z,72.90
2018-02-11T08:06:10.069Z,72.40
2018-02-11T08:08:38.197Z,72.40
2018-02-11T08:11:07.125Z,72.30
2018-02-11T08:13:35.264Z,72.30
2018-02-11T08:16:04.181Z,71.90
2018-02-11T08:18:44.132Z,71.90
2018-02-11T08:21:12.288Z,71.60
2018-02-11T08:23:40.433Z,72.30
2018-02-11T08:26:08.590Z,72.40
2018-02-11T08:28:37.651Z,71.70
2018-02-11T08:31:05.799Z,71.90
2018-02-11T08:33:33.949Z,71.20
2018-02-11T08:36:02.149Z,71.80
2018-02-11T08:38:39.049Z,71.70
2018-02-11T08:41:07.196Z,71.30
2018-02-11T08:43:36.093Z,70.80
2018-02-11T08:46:04.246Z,70.80
2018-02-11T08:48:37.238Z,69.40
2018-02-11T08:51:06.193Z,69.40
2018-02-11T08:53:34.330Z,69.40
2018-02-11T08:56:02.480Z,69.60
2018-02-11T08:58:41.548Z,68.30
2018-02-11T09:01:09.681Z,68.30
2018-02-11T09:03:38.594Z,68.90
2018-02-11T09:06:06.720Z,68.90
2018-02-11T09:08:34.860Z,68.50
2018-02-11T09:11:02.988Z,68.50
2018-02-11T09:13:31.896Z,69.10
2018-02-11T09:16:00.029Z,69.10
2018-02-11T09:18:28.185Z,69.80
2018-02-11T09:20:56.327Z,68.60
2018-02-11T09:23:24.472Z,68.00
2018-02-11T09:25:53.369Z,67.60
2018-02-11T09:28:21.508Z,67.60
2018-02-11T09:30:49.639Z,67.40
2018-02-11T09:33:17.787Z,69.00
2018-02-11T09:35:45.928Z,68.40
2018-02-11T09:38:14.072Z,68.90
2018-02-11T09:40:47.532Z,69.20
2018-02-11T09:43:15.677Z,71.30
2018-02-11T09:45:43.805Z,73.40
2018-02-11T09:48:11.940Z,74.10
2018-02-11T09:50:45.356Z,75.60
2018-02-11T09:53:13.533Z,75.40
2018-02-11T09:55:42.400Z,77.00
2018-02-11T09:58:11.349Z,77.40
2018-02-11T10:00:53.402Z,77.40
2018-02-11T10:03:21.609Z,76.30
2018-02-11T10:05:49.739Z,76.50
2018-02-11T10:08:18.661Z,78.50
2018-02-11T10:10:46.800Z,78.50
2018-02-11T10:13:15.697Z,77.60
2018-02-11T10:15:44.606Z,77.00
2018-02-11T10:18:12.740Z,77.10
2018-02-11T10:20:41.664Z,78.40
2018-02-11T10:23:09.793Z,78.40
2018-02-11T10:25:37.937Z,79.70
2018-02-11T10:28:06.064Z,80.30
2018-02-11T10:30:34.972Z,82.20
2018-02-11T10:33:03.105Z,82.10
2018-02-11T10:35:31.252Z,82.00
2018-02-11T10:37:59.376Z,81.20
2018-02-11T10:40:30.244Z,81.00
2018-02-11T10:42:58.373Z,81.10
2018-02-11T10:45:27.282Z,81.50
2018-02-11T10:47:55.416Z,81.50
2018-02-11T10:50:23.560Z,81.90
2018-02-11T10:52:51.688Z,80.80
2018-02-11T10:55:20.582Z,82.60
2018-02-11T10:57:49.496Z,83.20
2018-02-11T11:00:19.608Z,83.10
2018-02-11T11:02:47.753Z,82.30
2018-02-11T11:05:16.652Z,83.10
2018-02-11T11:07:45.565Z,83.30
2018-02-11T11:10:14.669Z,83.30
2018-02-11T11:12:42.814Z,82.80
2018-02-11T11:15:11.709Z,84.10
2018-02-11T11:17:39.857Z,83.90
2018-02-11T11:20:07.984Z,83.40
2018-02-11T11:22:36.137Z,83.10
2018-02-11T11:25:04.270Z,82.60
2018-02-11T11:27:32.430Z,81.00
2018-02-11T11:30:01.491Z,81.60
2018-02-11T11:32:29.640Z,81.20
2018-02-11T11:34:57.782Z,81.50
2018-02-11T11:37:25.949Z,81.10
2018-02-11T11:40:01.253Z,82.60
2018-02-11T11:42:29.397Z,82.80
2018-02-11T11:44:58.280Z,81.80
2018-02-11T11:47:27.192Z,81.30
2018-02-11T11:49:56.302Z,81.30
2018-02-11T11:52:24.487Z,80.60
2018-02-11T11:54:52.615Z,81.60
2018-02-11T11:57:21.516Z,83.20
2018-02-11T11:59:54.329Z,83.20
2018-02-11T12:02:22.462Z,82.80
2018-02-11T12:04:51.377Z,85.00
2018-02-11T12:07:19.513Z,84.90
2018-02-11T12:09:54.089Z,84.70
2018-02-11T12:12:22.284Z,84.70
2018-02-11T12:14:50.442Z,84.40
2018-02-11T12:17:18.597Z,84.80
2018-02-11T12:19:46.748Z,83.90
2018-02-11T12:22:15.677Z,84.90
2018-02-11T12:24:43.885Z,84.90
2018-02-11T12:27:12.071Z,84.30
2018-02-11T12:29:41.314Z,84.40
2018-02-11T12:32:09.445Z,84.50
2018-02-11T12:34:38.362Z,84.80
2018-02-11T12:37:06.492Z,84.70
2018-02-11T12:39:34.646Z,84.70
2018-02-11T12:42:02.777Z,83.40
2018-02-11T12:44:30.965Z,84.40
2018-02-11T12:46:59.085Z,84.80
2018-02-11T12:49:27.293Z,83.10
2018-02-11T12:51:55.421Z,83.90
2018-02-11T12:54:23.610Z,82.60
2018-02-11T12:56:51.740Z,84.00
2018-02-11T12:59:32.685Z,84.00
2018-02-11T13:02:00.814Z,84.50
2018-02-11T13:04:28.993Z,83.90
2018-02-11T13:06:57.121Z,84.70
2018-02-11T13:09:25.252Z,84.90
2018-02-11T13:11:53.397Z,84.60
2018-02-11T13:14:21.525Z,84.30
2018-02-11T13:16:49.669Z,84.30
2018-02-11T13:19:20.541Z,84.90
2018-02-11T13:21:48.689Z,84.90
2018-02-11T13:24:17.584Z,85.60
2018-02-11T13:26:46.498Z,85.00
2018-02-11T13:29:21.936Z,85.00
2018-02-11T13:31:50.084Z,85.10
2018-02-11T13:34:18.209Z,85.30
2018-02-11T13:36:46.352Z,85.90
2018-02-11T13:39:22.529Z,85.10
2018-02-11T13:41:51.525Z,84.80
2018-02-11T13:44:19.664Z,85.30
2018-02-11T13:46:48.569Z,85.30
2018-02-11T13:49:17.716Z,85.40
2018-02-11T13:51:45.865Z,85.40
2018-02-11T13:54:13.989Z,85.40
2018-02-11T13:56:42.900Z,84.80
2018-02-11T13:59:11.060Z,85.60
2018-02-11T14:01:40.044Z,84.80
2018-02-11T14:04:08.944Z,85.10
2018-02-11T14:06:37.081Z,85.00
2018-02-11T14:09:06.171Z,85.60
2018-02-11T14:11:34.289Z,84.40
2018-02-11T14:14:02.436Z,83.70
2018-02-11T14:16:30.581Z,83.80
2018-02-11T14:18:58.737Z,84.10
2018-02-11T14:21:26.860Z,83.70
2018-02-11T14:23:55.782Z,83.90
2018-02-11T14:26:23.917Z,83.80
2018-02-11T14:28:52.053Z,84.60
2018-02-11T14:31:20.187Z,84.50
2018-02-11T14:33:48.349Z,84.80
2018-02-11T14:36:17.241Z,85.70
2018-02-11T14:38:45.390Z,85.70
2018-02-11T14:41:13.521Z,85.30
2018-02-11T14:43:41.673Z,85.20
2018-02-11T14:46:09.817Z,85.80
2018-02-11T14:48:42.567Z,85.80
2018-02-11T14:51:10.701Z,85.60
2018-02-11T14:53:38.889Z,85.70
2018-02-11T14:56:07.077Z,84.90
2018-02-11T14:58:37.193Z,85.20
2018-02-11T15:01:05.316Z,84.80
2018-02-11T15:03:34.213Z,85.00
2018-02-11T15:06:03.131Z,84.00
2018-02-11T15:08:32.221Z,84.00
2018-02-11T15:11:00.366Z,84.00
2018-02-11T15:13:29.265Z,84.10
2018-02-11T15:15:58.172Z,83.50
2018-02-11T15:18:26.294Z,83.50
2018-02-11T15:20:54.444Z,82.70
2018-02-11T15:23:22.562Z,82.60
2018-02-11T15:25:51.477Z,82.40
2018-02-11T15:28:19.661Z,82.30
2018-02-11T15:30:47.809Z,82.70
2018-02-11T15:33:15.950Z,82.30
2018-02-11T15:35:44.088Z,82.30
2018-02-11T15:38:12.209Z,82.50
2018-02-11T15:40:40.358Z,81.50
2018-02-11T15:43:08.489Z,82.30
2018-02-11T15:45:36.624Z,81.70
2018-02-11T15:48:04.759Z,80.80
2018-02-11T15:50:34.881Z,81.00
2018-02-11T15:53:03.769Z,82.10
2018-02-11T15:55:32.678Z,82.40
2018-02-11T15:58:00.793Z,82.50
2018-02-11T16:00:36.889Z,82.00
2018-02-11T16:03:05.024Z,82.00
2018-02-11T16:05:33.937Z,82.10
2018-02-11T16:08:02.061Z,82.00
2018-02-11T16:10:30.201Z,82.40
2018-02-11T16:12:58.337Z,82.90
2018-02-11T16:15:27.281Z,83.40
2018-02-11T16:17:55.405Z,83.40
2018-02-11T16:20:25.557Z,83.50
2018-02-11T16:22:53.687Z,83.70
2018-02-11T16:25:22.598Z,83.60
2018-02-11T16:27:50.740Z,83.50
2018-02-11T16:30:24.166Z,84.10
2018-02-11T16:32:52.326Z,83.70
2018-02-11T16:35:21.233Z,84.00
2018-02-11T16:37:49.370Z,83.90
2018-02-11T16:40:18.361Z,84.10
2018-02-11T16:42:46.594Z,84.00
2018-02-11T16:45:14.789Z,84.00
2018-02-11T16:47:43.037Z,83.90
2018-02-11T16:50:13.216Z,84.00
2018-02-11T16:52:42.170Z,84.10
2018-02-11T16:55:10.336Z,84.00
2018-02-11T16:57:38.534Z,83.90
2018-02-11T17:00:15.197Z,84.10
2018-02-11T17:02:43.437Z,84.10
2018-02-11T17:05:12.358Z,83.00
2018-02-11T17:07:40.586Z,83.80
2018-02-11T17:10:19.685Z,83.10
2018-02-11T17:12:47.934Z,83.20
2018-02-11T17:15:16.117Z,83.30
2018-02-11T17:17:44.331Z,83.10
2018-02-11T17:20:20.337Z,83.20
2018-02-11T17:22:48.511Z,83.30
2018-02-11T17:25:16.703Z,83.50
2018-02-11T17:27:44.889Z,83.20
2018-02-11T17:30:13.074Z,83.70
2018-02-11T17:32:42.088Z,84.00
2018-02-11T17:35:10.293Z,84.00
2018-02-11T17:37:38.484Z,84.50
2018-02-11T17:40:06.641Z,85.00
2018-02-11T17:42:34.781Z,85.30
2018-02-11T17:45:03.022Z,86.00
2018-02-11T17:47:31.219Z,86.70
2018-02-11T17:50:01.168Z,87.60
2018-02-11T17:52:29.324Z,87.60
2018-02-11T17:54:57.504Z,88.10
2018-02-11T17:57:25.695Z,88.30
2018-02-11T17:59:54.869Z,88.50
2018-02-11T18:02:23.046Z,88.60
2018-02-11T18:04:51.241Z,88.90
2018-02-11T18:07:19.403Z,89.00
2018-02-11T18:09:51.560Z,89.20
2018-02-11T18:12:19.685Z,89.20
2018-02-11T18:14:47.829Z,89.00
2018-02-11T18:17:15.953Z,89.20
2018-02-11T18:19:44.856Z,89.10
2018-02-11T18:22:12.982Z,89.10
2018-02-11T18:24:41.141Z,88.80
2018-02-11T18:27:09.268Z,89.10
2018-02-11T18:30:02.139Z,88.80
2018-02-11T18:32:30.272Z,88.80
2018-02-11T18:34:58.443Z,88.60
2018-02-11T18:37:26.566Z,88.00
2018-02-11T18:39:55.613Z,88.40
2018-02-11T18:42:23.760Z,88.50
2018-02-11T18:44:51.905Z,88.60
2018-02-11T18:47:20.049Z,88.80
2018-02-11T18:49:57.589Z,88.60
2018-02-11T18:52:25.730Z,88.30
2018-02-11T18:54:53.886Z,88.30
2018-02-11T18:57:22.789Z,88.50
2018-02-11T18:59:52.916Z,88.40
2018-02-11T19:02:21.063Z,88.30
2018-02-11T19:04:49.992Z,88.30
2018-02-11T19:07:18.136Z,88.30
2018-02-11T19:09:58.617Z,88.00
2018-02-11T19:12:26.768Z,88.00
2018-02-11T19:14:55.661Z,88.00
2018-02-11T19:17:24.571Z,87.90
2018-02-11T19:19:54.688Z,87.90
2018-02-11T19:22:22.842Z,87.80
2018-02-11T19:24:51.729Z,86.70
2018-02-11T19:27:19.906Z,86.70
2018-02-11T19:29:56.804Z,86.30
2018-02-11T19:32:24.961Z,86.20
2018-02-11T19:34:53.860Z,86.30
2018-02-11T19:37:22.007Z,86.30
2018-02-11T19:39:50.133Z,85.90
2018-02-11T19:42:18.276Z,86.10
2018-02-11T19:44:46.401Z,85.80
2018-02-11T19:47:14.548Z,85.80
2018-02-11T19:49:42.696Z,85.60
2018-02-11T19:52:10.833Z,85.70
2018-02-11T19:54:38.953Z,85.60
2018-02-11T19:57:07.145Z,85.40
2018-02-11T19:59:53.397Z,85.40
2018-02-11T20:02:22.300Z,85.60
2018-02-11T20:04:50.426Z,85.50
2018-02-11T20:07:18.566Z,85.50
2018-02-11T20:09:46.709Z,85.70
2018-02-11T20:12:15.619Z,85.80
2018-02-11T20:14:43.753Z,85.80
2018-02-11T20:17:11.918Z,85.60
2018-02-11T20:19:40.051Z,85.40
2018-02-11T20:22:08.192Z,85.20
2018-02-11T20:24:36.315Z,85.30
2018-02-11T20:27:04.493Z,85.10
2018-02-11T20:29:32.634Z,85.30
2018-02-11T20:32:00.757Z,85.40
2018-02-11T20:34:28.901Z,85.40
2018-02-11T20:36:57.025Z,85.30
2018-02-11T20:39:36.402Z,85.00
2018-02-11T20:42:04.525Z,84.80
2018-02-11T20:44:33.448Z,84.80
2018-02-11T20:47:01.574Z,84.80
2018-02-11T20:49:37.056Z,85.10
2018-02-11T20:52:05.176Z,84.80
2018-02-11T20:54:33.319Z,85.00
2018-02-11T20:57:01.444Z,84.70
2018-02-11T20:59:29.597Z,84.90
2018-02-11T21:01:57.725Z,84.40
2018-02-11T21:04:25.870Z,84.60
2018-02-11T21:06:54.780Z,85.20
2018-02-11T21:09:23.917Z,85.20
2018-02-11T21:11:52.041Z,85.10
2018-02-11T21:14:20.976Z,84.90
2018-02-11T21:16:49.093Z,84.80
2018-02-11T21:19:26.641Z,84.60
2018-02-11T21:21:54.778Z,84.70
2018-02-11T21:24:22.927Z,84.60
2018-02-11T21:26:51.832Z,84.90
2018-02-11T21:29:30.389Z,84.80
2018-02-11T21:31:58.521Z,84.80
2018-02-11T21:34:27.428Z,84.80
2018-02-11T21:36:55.601Z,84.80
2018-02-11T21:39:24.519Z,84.80
2018-02-11T21:41:52.644Z,84.80
2018-02-11T21:44:21.554Z,84.70
2018-02-11T21:46:49.701Z,84.60
2018-02-11T21:49:21.921Z,85.10
2018-02-11T21:51:50.049Z,85.10
2018-02-11T21:54:18.204Z,85.00
2018-02-11T21:56:46.328Z,84.90
2018-02-11T21:59:24.240Z,84.90
2018-02-11T22:01:52.364Z,85.10
2018-02-11T22:04:21.276Z,85.30
2018-02-11T22:06:49.398Z,85.20
2018-02-11T22:09:21.225Z,85.10
2018-02-11T22:11:49.384Z,85.00
2018-02-11T22:14:18.261Z,85.10
2018-02-11T22:16:47.162Z,85.50
2018-02-11T22:19:15.297Z,85.50
2018-02-11T22:21:44.216Z,85.60
2018-02-11T22:24:13.100Z,85.60
2018-02-11T22:26:42.057Z,85.80
2018-02-11T22:29:11.121Z,85.80
2018-02-11T22:31:39.264Z,85.90
2018-02-11T22:34:08.153Z,85.50
2018-02-11T22:36:37.060Z,85.10
2018-02-11T22:39:06.153Z,85.00
2018-02-11T22:41:34.301Z,84.80
2018-02-11T22:44:03.196Z,84.00
2018-02-11T22:46:32.101Z,84.10
2018-02-11T22:49:00.220Z,84.10
2018-02-11T22:51:28.368Z,84.10
2018-02-11T22:53:56.493Z,83.80
2018-02-11T22:56:24.628Z,84.00
2018-02-11T22:59:01.705Z,84.00
2018-02-11T23:01:29.889Z,83.50
2018-02-11T23:03:58.034Z,83.70
2018-02-11T23:06:26.165Z,83.70
2018-02-11T23:09:06.120Z,83.40
2018-02-11T23:11:35.101Z,83.50
2018-02-11T23:14:03.274Z,83.50
2018-02-11T23:16:31.532Z,83.30
2018-02-11T23:19:14.629Z,83.50
2018-02-11T23:21:42.774Z,83.40
2018-02-11T23:24:10.945Z,83.60
2018-02-11T23:26:39.893Z,84.00
2018-02-11T23:29:12.257Z,84.00
2018-02-11T23:31:40.433Z,83.80
2018-02-11T23:34:08.682Z,83.80
2018-02-11T23:36:36.855Z,83.80
2018-02-11T23:39:22.628Z,83.40
2018-02-11T23:41:50.762Z,83.40
2018-02-11T23:44:18.904Z,83.60
2018-02-11T23:46:47.034Z,83.80
2018-02-11T23:49:20.988Z,84.00
2018-02-11T23:51:49.116Z,83.90
2018-02-11T23:54:18.061Z,84.10
2018-02-11T23:56:46.188Z,84.00
2018-02-11T23:59:24.736Z,84.30
